createdAt,value
2022-09-27T00:00:43.030Z,18.03
2022-09-27T00:03:27.189Z,17.84
2022-09-27T00:06:15.024Z,17.67
2022-09-27T00:09:01.028Z,17.94
2022-09-27T00:11:45.585Z,17.71
2022-09-27T00:14:29.801Z,17.30
2022-09-27T00:17:13.723Z,17.68
2022-09-27T00:20:00.163Z,17.64
2022-09-27T00:22:44.071Z,17.87
2022-09-27T00:25:29.230Z,18.06
2022-09-27T00:28:14.302Z,18.18
2022-09-27T00:30:59.326Z,18.19
2022-09-27T00:33:43.270Z,18.28
2022-09-27T00:36:28.405Z,17.87
2022-09-27T00:39:12.681Z,17.84
2022-09-27T00:41:58.067Z,18.19
2022-09-27T00:45:10.331Z,18.06
2022-09-27T00:47:59.056Z,17.18
2022-09-27T00:50:46.994Z,18.17
2022-09-27T00:53:35.347Z,18.07
2022-09-27T00:56:23.987Z,18.13
2022-09-27T00:59:15.669Z,18.33
2022-09-27T01:01:59.972Z,18.07
2022-09-27T01:04:45.947Z,18.20
2022-09-27T01:07:29.972Z,18.34
2022-09-27T01:10:14.560Z,18.23
2022-09-27T01:13:06.886Z,18.17
2022-09-27T01:16:00.808Z,18.03
2022-09-27T01:18:58.918Z,18.01
2022-09-27T01:21:49.321Z,17.85
2022-09-27T01:24:58.386Z,17.85
2022-09-27T01:28:12.956Z,17.87
2022-09-27T01:31:06.265Z,17.89
2022-09-27T01:34:02.355Z,18.06
2022-09-27T01:36:54.435Z,18.31
2022-09-27T01:39:48.055Z,18.34
2022-09-27T01:43:05.922Z,18.15
2022-09-27T01:46:01.003Z,18.24
2022-09-27T01:49:09.692Z,18.17
2022-09-27T01:51:57.529Z,18.04
2022-09-27T01:54:46.171Z,18.31
2022-09-27T01:57:38.276Z,18.11
2022-09-27T02:00:25.309Z,18.22
2022-09-27T02:03:17.061Z,18.22
2022-09-27T02:06:39.403Z,18.02
2022-09-27T02:09:38.185Z,18.13
2022-09-27T02:12:41.687Z,18.19
2022-09-27T02:15:35.291Z,17.92
2022-09-27T02:18:53.255Z,17.86
2022-09-27T02:21:46.760Z,18.01
2022-09-27T02:24:37.416Z,18.12
2022-09-27T02:27:28.140Z,17.85
2022-09-27T02:30:16.107Z,18.15
2022-09-27T02:33:04.257Z,18.05
2022-09-27T02:35:51.672Z,18.34
2022-09-27T02:38:36.288Z,18.42
2022-09-27T02:41:23.845Z,18.31
2022-09-27T02:44:13.320Z,18.28
2022-09-27T02:47:21.286Z,18.52
2022-09-27T02:50:26.308Z,18.39
2022-09-27T02:53:24.923Z,18.67
2022-09-27T02:56:27.287Z,18.66
2022-09-27T02:59:35.699Z,18.68
2022-09-27T03:02:40.434Z,18.68
2022-09-27T03:05:48.369Z,18.70
2022-09-27T03:08:35.842Z,18.58
2022-09-27T03:11:20.738Z,18.69
2022-09-27T03:14:09.299Z,18.75
2022-09-27T03:17:00.314Z,18.84
2022-09-27T03:20:03.493Z,18.75
2022-09-27T03:23:08.378Z,18.33
2022-09-27T03:25:54.795Z,18.29
2022-09-27T03:28:39.634Z,18.52
2022-09-27T03:31:23.981Z,18.37
2022-09-27T03:34:40.239Z,18.59
2022-09-27T03:37:24.947Z,18.99
2022-09-27T03:40:10.935Z,18.91
2022-09-27T03:42:57.001Z,18.83
2022-09-27T03:45:41.563Z,19.13
2022-09-27T03:48:28.494Z,18.74
2022-09-27T03:51:13.134Z,18.67
2022-09-27T03:53:57.941Z,18.95
2022-09-27T03:56:42.258Z,18.92
2022-09-27T03:59:28.003Z,18.79
2022-09-27T04:02:30.614Z,19.14
2022-09-27T04:05:53.039Z,19.13
2022-09-27T04:08:43.782Z,18.97
2022-09-27T04:11:28.132Z,18.67
2022-09-27T04:14:13.335Z,18.61
2022-09-27T04:17:18.600Z,18.50
2022-09-27T04:20:28.621Z,18.49
2022-09-27T04:23:13.802Z,18.64
2022-09-27T04:26:06.900Z,18.57
2022-09-27T04:29:10.346Z,19.04
2022-09-27T04:31:58.220Z,18.98
2022-09-27T04:35:20.855Z,19.17
2022-09-27T04:38:05.569Z,19.50
2022-09-27T04:40:50.703Z,19.74
2022-09-27T04:43:35.359Z,19.82
2022-09-27T04:46:21.433Z,19.70
2022-09-27T04:49:05.637Z,19.63
2022-09-27T04:51:54.257Z,19.82
2022-09-27T04:54:39.779Z,20.09
2022-09-27T04:57:28.353Z,19.93
2022-09-27T05:00:13.925Z,19.90
2022-09-27T05:02:59.322Z,19.81
2022-09-27T05:06:15.825Z,20.42
2022-09-27T05:09:02.130Z,20.10
2022-09-27T05:11:48.290Z,20.22
2022-09-27T05:14:50.340Z,20.77
2022-09-27T05:17:49.033Z,20.37
2022-09-27T05:21:08.069Z,20.58
2022-09-27T05:23:57.519Z,20.83
2022-09-27T05:26:43.117Z,20.80
2022-09-27T05:29:27.132Z,21.45
2022-09-27T05:32:25.077Z,21.35
2022-09-27T05:35:22.802Z,21.66
2022-09-27T05:38:06.644Z,21.67
2022-09-27T05:40:53.153Z,21.86
2022-09-27T05:43:38.723Z,22.22
2022-09-27T05:46:22.780Z,22.36
2022-09-27T05:49:06.687Z,22.15
2022-09-27T05:51:50.585Z,22.37
2022-09-27T05:54:34.887Z,22.50
2022-09-27T05:57:18.999Z,22.32
2022-09-27T06:00:09.440Z,22.22
2022-09-27T06:02:57.868Z,22.57
2022-09-27T06:06:20.498Z,22.45
2022-09-27T06:09:12.476Z,22.17
2022-09-27T06:11:56.994Z,22.21
2022-09-27T06:14:42.835Z,21.99
2022-09-27T06:17:35.369Z,22.68
2022-09-27T06:20:25.608Z,23.06
2022-09-27T06:23:11.593Z,23.31
2022-09-27T06:25:55.690Z,23.39
2022-09-27T06:28:47.868Z,23.16
2022-09-27T06:31:32.330Z,22.81
2022-09-27T06:34:28.303Z,23.43
2022-09-27T06:37:12.550Z,22.60
2022-09-27T06:39:56.575Z,22.73
2022-09-27T06:43:04.341Z,22.35
2022-09-27T06:46:19.527Z,22.25
2022-09-27T06:49:33.837Z,22.17
2022-09-27T06:52:17.714Z,22.01
2022-09-27T06:55:01.676Z,21.24
2022-09-27T06:58:05.316Z,22.15
2022-09-27T07:00:50.898Z,22.42
2022-09-27T07:04:00.773Z,22.36
2022-09-27T07:07:00.721Z,22.32
2022-09-27T07:09:48.824Z,22.25
2022-09-27T07:12:32.648Z,22.54
2022-09-27T07:15:16.682Z,22.92
2022-09-27T07:18:01.671Z,23.31
2022-09-27T07:20:46.340Z,23.28
2022-09-27T07:23:31.742Z,23.34
2022-09-27T07:26:16.234Z,23.41
2022-09-27T07:29:00.855Z,23.57
2022-09-27T07:31:46.386Z,23.75
2022-09-27T07:34:30.270Z,23.48
2022-09-27T07:37:14.427Z,22.82
2022-09-27T07:39:59.927Z,22.59
2022-09-27T07:42:44.080Z,22.82
2022-09-27T07:45:28.217Z,22.88
2022-09-27T07:48:39.415Z,22.81
2022-09-27T07:51:46.285Z,23.14
2022-09-27T07:54:43.703Z,23.31
2022-09-27T07:57:45.057Z,23.53
2022-09-27T08:00:29.599Z,23.35
2022-09-27T08:03:16.302Z,23.38
2022-09-27T08:06:04.443Z,23.83
2022-09-27T08:08:48.723Z,23.43
2022-09-27T08:11:34.004Z,23.09
2022-09-27T08:14:21.752Z,24.25
2022-09-27T08:17:06.919Z,24.55
2022-09-27T08:20:11.095Z,24.57
2022-09-27T08:23:33.597Z,24.10
2022-09-27T08:26:32.318Z,24.46
2022-09-27T08:29:26.149Z,24.39
2022-09-27T08:32:13.297Z,24.17
2022-09-27T08:34:57.180Z,24.29
2022-09-27T08:37:41.073Z,24.21
2022-09-27T08:40:28.214Z,24.23
2022-09-27T08:43:20.831Z,24.27
2022-09-27T08:46:19.945Z,24.24
2022-09-27T08:49:08.812Z,24.28
2022-09-27T08:51:55.802Z,24.43
2022-09-27T08:54:41.167Z,24.54
2022-09-27T08:57:26.501Z,24.68
2022-09-27T09:00:13.987Z,24.57
2022-09-27T09:03:03.972Z,24.63
2022-09-27T09:06:05.475Z,24.33
2022-09-27T09:09:02.477Z,24.06
2022-09-27T09:12:18.628Z,24.55
2022-09-27T09:15:17.703Z,24.43
2022-09-27T09:18:23.381Z,24.68
2022-09-27T09:21:35.305Z,24.92
2022-09-27T09:24:33.848Z,24.43
2022-09-27T09:27:27.108Z,24.50
2022-09-27T09:30:23.437Z,25.27
2022-09-27T09:33:26.056Z,24.74
2022-09-27T09:36:21.338Z,24.97
2022-09-27T09:39:13.476Z,24.74
2022-09-27T09:42:08.824Z,24.88
2022-09-27T09:45:01.181Z,24.80
2022-09-27T09:47:56.022Z,24.76
2022-09-27T09:50:46.881Z,25.17
2022-09-27T09:53:44.290Z,25.66
2022-09-27T09:56:33.253Z,26.21
2022-09-27T09:59:24.563Z,25.82
2022-09-27T10:02:23.270Z,25.79
2022-09-27T10:05:09.084Z,25.95
2022-09-27T10:07:58.890Z,25.73
2022-09-27T10:10:43.148Z,25.78
2022-09-27T10:13:56.988Z,25.75
2022-09-27T10:16:43.301Z,25.16
2022-09-27T10:19:30.681Z,26.00
2022-09-27T10:22:25.146Z,25.56
2022-09-27T10:25:12.575Z,26.36
2022-09-27T10:28:03.528Z,26.30
2022-09-27T10:30:57.359Z,26.40
2022-09-27T10:33:55.187Z,26.10
2022-09-27T10:36:41.311Z,26.17
2022-09-27T10:39:27.682Z,25.96
2022-09-27T10:42:33.719Z,25.91
2022-09-27T10:45:28.164Z,25.53
2022-09-27T10:48:23.664Z,26.68
2022-09-27T10:51:25.062Z,26.37
2022-09-27T10:54:22.067Z,26.49
2022-09-27T10:57:17.615Z,26.60
2022-09-27T11:00:08.418Z,27.22
2022-09-27T11:02:55.694Z,27.58
2022-09-27T11:05:44.281Z,27.08
2022-09-27T11:08:32.244Z,26.96
2022-09-27T11:11:31.204Z,27.54
2022-09-27T11:14:23.199Z,27.01
2022-09-27T11:17:19.004Z,27.89
2022-09-27T11:20:26.230Z,27.34
2022-09-27T11:23:34.889Z,27.59
2022-09-27T11:26:38.674Z,27.24
2022-09-27T11:29:31.897Z,26.30
2022-09-27T11:33:07.111Z,27.13
2022-09-27T11:36:01.342Z,27.40
2022-09-27T11:39:02.901Z,27.22
2022-09-27T11:42:07.382Z,27.49
2022-09-27T11:45:34.263Z,26.86
2022-09-27T11:48:28.781Z,26.43
2022-09-27T11:51:26.874Z,26.26
2022-09-27T11:54:36.102Z,26.25
2022-09-27T11:57:26.535Z,26.96
2022-09-27T12:00:19.046Z,28.01
2022-09-27T12:03:47.890Z,28.15
2022-09-27T12:06:49.064Z,26.74
2022-09-27T12:09:37.510Z,27.02
2022-09-27T12:12:25.706Z,27.50
2022-09-27T12:15:17.088Z,27.13
2022-09-27T12:18:15.383Z,26.17
2022-09-27T12:21:03.160Z,27.05
2022-09-27T12:23:51.556Z,26.43
2022-09-27T12:26:56.446Z,26.54
2022-09-27T12:29:43.893Z,26.69
2022-09-27T12:32:33.309Z,26.56
2022-09-27T12:35:22.877Z,26.75
2022-09-27T12:38:15.118Z,27.54
2022-09-27T12:41:01.457Z,27.00
2022-09-27T12:43:54.865Z,27.50
2022-09-27T12:47:00.859Z,28.07
2022-09-27T12:49:52.544Z,28.00
2022-09-27T12:52:42.603Z,28.45
2022-09-27T12:55:55.699Z,28.03
2022-09-27T12:59:03.785Z,28.53
2022-09-27T13:02:28.355Z,28.32
2022-09-27T13:05:46.136Z,28.02
2022-09-27T13:09:04.657Z,27.62
2022-09-27T13:11:58.672Z,27.65
2022-09-27T13:14:51.838Z,28.00
2022-09-27T13:17:53.352Z,28.30
2022-09-27T13:21:00.307Z,27.95
2022-09-27T13:24:47.258Z,27.40
2022-09-27T13:27:51.563Z,27.31
2022-09-27T13:30:46.405Z,27.25
2022-09-27T13:33:41.604Z,26.76
2022-09-27T13:36:34.316Z,26.26
2022-09-27T13:39:25.794Z,26.46
2022-09-27T13:42:37.172Z,26.63
2022-09-27T13:45:27.233Z,27.01
2022-09-27T13:48:17.892Z,26.18
2022-09-27T13:51:06.342Z,25.89
2022-09-27T13:53:59.015Z,26.50
2022-09-27T13:56:54.322Z,26.71
2022-09-27T13:59:44.495Z,26.49
2022-09-27T14:02:59.169Z,26.91
2022-09-27T14:05:53.330Z,26.49
2022-09-27T14:08:44.727Z,26.39
2022-09-27T14:11:32.278Z,26.74
2022-09-27T14:14:20.910Z,26.04
2022-09-27T14:17:11.702Z,26.35
2022-09-27T14:19:57.543Z,25.84
2022-09-27T14:22:44.201Z,26.06
2022-09-27T14:25:28.562Z,26.30
2022-09-27T14:28:21.705Z,25.98
2022-09-27T14:31:17.895Z,25.37
2022-09-27T14:34:19.797Z,25.71
2022-09-27T14:37:23.731Z,25.60
2022-09-27T14:40:21.911Z,25.65
2022-09-27T14:43:06.746Z,25.46
2022-09-27T14:45:53.998Z,25.99
2022-09-27T14:48:39.296Z,25.91
2022-09-27T14:51:28.185Z,26.18
2022-09-27T14:54:22.266Z,26.35
2022-09-27T14:57:08.347Z,26.37
2022-09-27T14:59:52.131Z,26.45
2022-09-27T15:02:38.238Z,26.69
2022-09-27T15:05:24.700Z,26.47
2022-09-27T15:08:08.629Z,26.43
2022-09-27T15:10:54.659Z,26.30
2022-09-27T15:13:39.704Z,25.85
2022-09-27T15:16:25.453Z,25.81
2022-09-27T15:19:17.589Z,25.89
2022-09-27T15:22:33.041Z,26.01
2022-09-27T15:25:32.558Z,25.96
2022-09-27T15:28:20.778Z,25.72
2022-09-27T15:31:05.748Z,25.66
2022-09-27T15:33:56.208Z,25.80
2022-09-27T15:36:55.828Z,25.75
2022-09-27T15:39:41.106Z,25.35
2022-09-27T15:42:24.785Z,25.13
2022-09-27T15:45:29.097Z,24.99
2022-09-27T15:48:16.329Z,25.02
2022-09-27T15:51:01.258Z,25.13
2022-09-27T15:53:46.090Z,25.52
2022-09-27T15:56:29.860Z,25.69
2022-09-27T15:59:17.943Z,25.82
2022-09-27T16:02:08.174Z,25.79
2022-09-27T16:04:52.263Z,25.72
2022-09-27T16:07:36.293Z,25.70
2022-09-27T16:10:22.038Z,25.69
2022-09-27T16:13:05.818Z,25.83
2022-09-27T16:15:50.197Z,25.47
2022-09-27T16:18:35.410Z,25.82
2022-09-27T16:21:19.165Z,25.68
2022-09-27T16:24:06.160Z,25.25
2022-09-27T16:26:50.375Z,25.61
2022-09-27T16:29:34.150Z,25.62
2022-09-27T16:32:18.234Z,25.63
2022-09-27T16:35:03.453Z,25.45
2022-09-27T16:37:47.763Z,25.49
2022-09-27T16:40:32.153Z,25.26
2022-09-27T16:43:16.743Z,25.20
2022-09-27T16:46:09.111Z,25.34
2022-09-27T16:48:54.647Z,25.20
2022-09-27T16:51:57.299Z,25.31
2022-09-27T16:54:41.453Z,25.26
2022-09-27T16:57:25.423Z,25.40
2022-09-27T17:00:10.785Z,25.40
2022-09-27T17:02:55.034Z,25.36
2022-09-27T17:05:39.087Z,25.40
2022-09-27T17:08:27.271Z,25.39
2022-09-27T17:11:14.874Z,25.34
2022-09-27T17:13:59.404Z,24.96
2022-09-27T17:16:43.545Z,25.00
2022-09-27T17:19:28.321Z,24.91
2022-09-27T17:22:12.035Z,24.90
2022-09-27T17:24:57.246Z,24.96
2022-09-27T17:27:41.070Z,25.00
2022-09-27T17:30:26.247Z,24.63
2022-09-27T17:33:10.293Z,24.56
2022-09-27T17:36:02.111Z,24.58
2022-09-27T17:38:46.895Z,24.58
2022-09-27T17:41:37.557Z,24.72
2022-09-27T17:44:27.077Z,24.42
2022-09-27T17:47:29.026Z,24.40
2022-09-27T17:50:28.977Z,23.90
2022-09-27T17:53:12.998Z,23.82
2022-09-27T17:56:03.764Z,24.07
2022-09-27T17:58:49.974Z,23.99
2022-09-27T18:01:34.580Z,24.17
2022-09-27T18:04:20.733Z,24.11
2022-09-27T18:07:04.825Z,24.14
2022-09-27T18:09:50.213Z,24.18
2022-09-27T18:12:35.137Z,24.22
2022-09-27T18:15:22.045Z,24.23
2022-09-27T18:18:06.293Z,24.32
2022-09-27T18:20:50.160Z,24.22
2022-09-27T18:23:34.691Z,24.18
2022-09-27T18:26:20.216Z,24.41
2022-09-27T18:29:07.165Z,24.49
2022-09-27T18:31:52.418Z,24.43
2022-09-27T18:34:36.432Z,24.35
2022-09-27T18:37:20.520Z,24.38
2022-09-27T18:40:05.130Z,24.33
2022-09-27T18:42:49.156Z,23.98
2022-09-27T18:45:37.323Z,24.26
2022-09-27T18:48:22.814Z,24.09
2022-09-27T18:51:08.434Z,24.13
2022-09-27T18:53:57.418Z,23.85
2022-09-27T18:56:43.200Z,23.85
2022-09-27T18:59:28.974Z,23.65
2022-09-27T19:02:13.115Z,23.30
2022-09-27T19:04:58.886Z,23.24
2022-09-27T19:07:43.104Z,23.30
2022-09-27T19:10:27.244Z,22.42
2022-09-27T19:13:11.450Z,20.78
2022-09-27T19:15:57.000Z,20.19
2022-09-27T19:18:43.109Z,19.59
2022-09-27T19:21:30.570Z,19.14
2022-09-27T19:24:16.903Z,18.99
2022-09-27T19:27:00.611Z,19.18
2022-09-27T19:29:46.078Z,18.87
2022-09-27T19:32:29.845Z,19.26
2022-09-27T19:35:14.003Z,19.30
2022-09-27T19:37:59.351Z,19.40
2022-09-27T19:40:43.177Z,19.56
2022-09-27T19:43:27.046Z,19.77
2022-09-27T19:46:14.201Z,19.93
2022-09-27T19:48:58.268Z,20.05
2022-09-27T19:51:42.194Z,19.72
2022-09-27T19:54:27.408Z,19.94
2022-09-27T19:57:11.363Z,20.13
2022-09-27T19:59:55.323Z,19.46
2022-09-27T20:02:39.434Z,19.62
2022-09-27T20:05:23.692Z,19.48
2022-09-27T20:08:07.610Z,19.42
2022-09-27T20:10:58.168Z,19.53
2022-09-27T20:13:44.898Z,19.37
2022-09-27T20:16:29.375Z,19.09
2022-09-27T20:19:13.554Z,18.62
2022-09-27T20:21:57.780Z,18.85
2022-09-27T20:24:41.733Z,19.05
2022-09-27T20:27:26.842Z,18.32
2022-09-27T20:30:12.369Z,18.86
2022-09-27T20:33:09.962Z,18.84
2022-09-27T20:35:55.102Z,19.09
2022-09-27T20:38:39.124Z,19.04
2022-09-27T20:41:26.665Z,18.46
2022-09-27T20:44:13.795Z,18.87
2022-09-27T20:46:59.327Z,19.21
2022-09-27T20:49:43.173Z,19.15
2022-09-27T20:52:26.897Z,19.15
2022-09-27T20:55:11.876Z,19.44
2022-09-27T20:57:57.681Z,19.32
2022-09-27T21:00:43.185Z,19.20
2022-09-27T21:03:27.036Z,18.81
2022-09-27T21:06:13.023Z,18.57
2022-09-27T21:08:56.916Z,18.36
2022-09-27T21:11:40.695Z,18.05
2022-09-27T21:14:24.531Z,17.18
2022-09-27T21:17:10.216Z,17.59
2022-09-27T21:19:54.199Z,17.50
2022-09-27T21:22:38.477Z,17.51
2022-09-27T21:25:22.699Z,17.42
2022-09-27T21:28:06.569Z,17.93
2022-09-27T21:30:50.454Z,17.86
2022-09-27T21:33:36.248Z,17.49
2022-09-27T21:36:20.328Z,17.90
2022-09-27T21:39:04.870Z,18.33
2022-09-27T21:41:48.702Z,18.45
2022-09-27T21:44:32.461Z,18.63
2022-09-27T21:47:16.271Z,18.73
2022-09-27T21:50:01.506Z,18.61
2022-09-27T21:52:46.747Z,18.69
2022-09-27T21:55:30.560Z,18.51
2022-09-27T21:58:14.316Z,18.46
2022-09-27T22:00:58.034Z,18.33
2022-09-27T22:03:43.636Z,18.24
2022-09-27T22:06:30.722Z,17.68
2022-09-27T22:09:17.099Z,17.48
2022-09-27T22:12:01.080Z,17.37
2022-09-27T22:14:44.869Z,17.54
2022-09-27T22:17:28.979Z,17.43
2022-09-27T22:20:12.966Z,17.48
2022-09-27T22:22:58.530Z,17.66
2022-09-27T22:25:42.429Z,18.02
2022-09-27T22:28:27.090Z,17.65
2022-09-27T22:31:11.736Z,17.55
2022-09-27T22:33:57.983Z,17.40
2022-09-27T22:36:42.394Z,17.47
2022-09-27T22:39:27.894Z,17.97
2022-09-27T22:42:11.705Z,18.18
2022-09-27T22:44:55.579Z,18.10
2022-09-27T22:47:39.881Z,18.11
2022-09-27T22:50:23.998Z,18.02
2022-09-27T22:53:07.941Z,18.25
2022-09-27T22:56:04.350Z,18.14
2022-09-27T22:58:49.928Z,18.05
2022-09-27T23:01:34.178Z,17.50
2022-09-27T23:04:18.103Z,17.70
2022-09-27T23:07:02.030Z,17.70
2022-09-27T23:09:46.223Z,17.84
2022-09-27T23:12:32.202Z,17.96
2022-09-27T23:15:16.232Z,17.69
2022-09-27T23:18:00.517Z,17.13
2022-09-27T23:20:45.099Z,17.62
2022-09-27T23:23:29.164Z,17.62
2022-09-27T23:26:15.762Z,16.25
2022-09-27T23:29:02.757Z,16.80
2022-09-27T23:31:46.681Z,16.64
2022-09-27T23:34:30.587Z,16.94
2022-09-27T23:37:14.485Z,16.68
2022-09-27T23:39:58.461Z,17.19
2022-09-27T23:42:42.321Z,16.99
2022-09-27T23:45:28.742Z,17.08
2022-09-27T23:48:13.065Z,17.36
2022-09-27T23:50:57.483Z,17.03
2022-09-27T23:53:41.759Z,17.27
2022-09-27T23:56:26.248Z,16.81
2022-09-27T23:59:10.211Z,17.10
